sensor_id;sensor_type;location;lat;lon;timestamp;pressure;altitude;pressure_sealevel;temperature;humidity
67545;BME280;54380;47.770;11.150;2023-04-16T09:29:36;94907.25;;;8.38;60.00
67545;BME280;54380;47.770;11.150;2023-04-16T15:39:18;94980.59;;;8.63;61.42
67545;BME280;54380;47.770;11.150;2023-04-16T15:42:02;94978.13;;;8.56;62.06
67545;BME280;54380;47.770;11.150;2023-04-16T15:44:43;94982.56;;;8.55;62.36
67545;BME280;54380;47.770;11.150;2023-04-16T15:47:24;94989.66;;;8.55;61.92
67545;BME280;54380;47.770;11.150;2023-04-16T15:49:52;94986.81;;;8.56;62.21
67545;BME280;54380;47.770;11.150;2023-04-16T15:52:20;94989.09;;;8.53;62.01
67545;BME280;54380;47.770;11.150;2023-04-16T15:55:05;94990.94;;;8.52;62.27
67545;BME280;54380;47.770;11.150;2023-04-16T15:57:32;94993.25;;;8.49;62.25
67545;BME280;54380;47.770;11.150;2023-04-16T16:00:03;94993.47;;;8.47;62.56
67545;BME280;54380;47.770;11.150;2023-04-16T16:02:56;94997.13;;;8.46;62.72
67545;BME280;54380;47.770;11.150;2023-04-16T16:05:31;94994.72;;;8.45;62.76
67545;BME280;54380;47.770;11.150;2023-04-16T16:08:12;94998.41;;;8.44;62.18
67545;BME280;54380;47.770;11.150;2023-04-16T16:13:35;95003.50;;;8.50;62.46
67545;BME280;54380;47.770;11.150;2023-04-16T16:16:03;94999.28;;;8.49;62.44
67545;BME280;54380;47.770;11.150;2023-04-16T16:18:30;95004.81;;;8.48;62.27
67545;BME280;54380;47.770;11.150;2023-04-16T16:20:57;95008.91;;;8.44;62.01
67545;BME280;54380;47.770;11.150;2023-04-16T16:23:39;95014.97;;;8.44;62.87
67545;BME280;54380;47.770;11.150;2023-04-16T16:26:20;95007.09;;;8.44;62.08
67545;BME280;54380;47.770;11.150;2023-04-16T16:28:50;95018.66;;;8.43;62.21
67545;BME280;54380;47.770;11.150;2023-04-16T16:31:17;95004.22;;;8.46;62.35
67545;BME280;54380;47.770;11.150;2023-04-16T16:33:57;95017.84;;;8.43;62.73
67545;BME280;54380;47.770;11.150;2023-04-16T16:36:32;95018.66;;;8.43;62.59
67545;BME280;54380;47.770;11.150;2023-04-16T16:39:03;95014.06;;;8.39;62.76
67545;BME280;54380;47.770;11.150;2023-04-16T16:41:44;95017.94;;;8.36;62.58
67545;BME280;54380;47.770;11.150;2023-04-16T16:44:27;95012.13;;;8.34;62.73
67545;BME280;54380;47.770;11.150;2023-04-16T16:46:55;95015.00;;;8.32;62.04
67545;BME280;54380;47.770;11.150;2023-04-16T16:49:36;95009.25;;;8.35;62.67
67545;BME280;54380;47.770;11.150;2023-04-16T16:52:16;95015.66;;;8.40;63.00
67545;BME280;54380;47.770;11.150;2023-04-16T16:54:57;95011.78;;;8.42;63.28
67545;BME280;54380;47.770;11.150;2023-04-16T16:57:39;95016.03;;;8.43;63.16
67545;BME280;54380;47.770;11.150;2023-04-16T17:06:45;95021.97;;;8.27;63.34
67545;BME280;54380;47.770;11.150;2023-04-16T17:09:27;95009.53;;;8.22;62.92
67545;BME280;54380;47.770;11.150;2023-04-16T17:12:09;95013.88;;;8.17;63.38
67545;BME280;54380;47.770;11.150;2023-04-16T17:14:54;95010.09;;;8.12;63.54
67545;BME280;54380;47.770;11.150;2023-04-16T17:18:15;95013.41;;;8.08;63.39
67545;BME280;54380;47.770;11.150;2023-04-16T17:20:56;95021.56;;;8.06;63.74
67545;BME280;54380;47.770;11.150;2023-04-16T18:25:44;95057.56;;;7.94;63.72
67545;BME280;54380;47.770;11.150;2023-04-16T18:28:14;95050.69;;;7.93;64.18
67545;BME280;54380;47.770;11.150;2023-04-16T18:30:41;95057.78;;;7.93;63.94
67545;BME280;54380;47.770;11.150;2023-04-16T18:33:08;95062.69;;;7.89;63.74
67545;BME280;54380;47.770;11.150;2023-04-16T18:35:38;95062.94;;;7.87;63.41
67545;BME280;54380;47.770;11.150;2023-04-16T18:38:06;95064.31;;;7.90;63.98
67545;BME280;54380;47.770;11.150;2023-04-16T18:40:33;95070.13;;;7.92;64.17
67545;BME280;54380;47.770;11.150;2023-04-16T18:43:02;95071.72;;;7.93;63.77
67545;BME280;54380;47.770;11.150;2023-04-16T18:45:28;95067.94;;;7.89;63.26
67545;BME280;54380;47.770;11.150;2023-04-16T18:47:55;95072.41;;;7.88;63.97
67545;BME280;54380;47.770;11.150;2023-04-16T18:50:24;95075.63;;;7.90;63.63
67545;BME280;54380;47.770;11.150;2023-04-16T18:52:52;95074.34;;;7.93;63.80
67545;BME280;54380;47.770;11.150;2023-04-16T18:55:19;95080.75;;;7.97;63.33
67545;BME280;54380;47.770;11.150;2023-04-16T18:57:45;95084.75;;;8.00;63.43
67545;BME280;54380;47.770;11.150;2023-04-16T19:00:14;95081.66;;;8.03;63.54
67545;BME280;54380;47.770;11.150;2023-04-16T19:02:41;95084.28;;;8.03;63.30
67545;BME280;54380;47.770;11.150;2023-04-16T19:05:09;95082.22;;;8.05;63.34
67545;BME280;54380;47.770;11.150;2023-04-16T19:07:36;95085.44;;;8.07;63.41
67545;BME280;54380;47.770;11.150;2023-04-16T19:10:04;95085.91;;;8.04;63.37
67545;BME280;54380;47.770;11.150;2023-04-16T19:12:31;95083.38;;;7.97;63.19
67545;BME280;54380;47.770;11.150;2023-04-16T19:14:58;95084.88;;;7.93;63.18
67545;BME280;54380;47.770;11.150;2023-04-16T19:17:27;95087.97;;;7.90;63.42
67545;BME280;54380;47.770;11.150;2023-04-16T19:19:54;95080.50;;;7.87;62.98
67545;BME280;54380;47.770;11.150;2023-04-16T19:22:23;95088.84;;;7.84;63.15
67545;BME280;54380;47.770;11.150;2023-04-16T19:24:51;95092.50;;;7.83;62.66
67545;BME280;54380;47.770;11.150;2023-04-16T19:27:17;95095.59;;;7.80;63.41
67545;BME280;54380;47.770;11.150;2023-04-16T19:29:44;95096.06;;;7.77;63.41
67545;BME280;54380;47.770;11.150;2023-04-16T19:32:12;95093.66;;;7.75;63.62
67545;BME280;54380;47.770;11.150;2023-04-16T19:34:41;95100.16;;;7.73;63.68
67545;BME280;54380;47.770;11.150;2023-04-16T19:37:08;95101.19;;;7.72;63.63
67545;BME280;54380;47.770;11.150;2023-04-16T19:39:34;95093.75;;;7.68;63.27
67545;BME280;54380;47.770;11.150;2023-04-16T19:42:02;95100.25;;;7.66;63.70
67545;BME280;54380;47.770;11.150;2023-04-16T19:44:29;95099.25;;;7.67;63.70
67545;BME280;54380;47.770;11.150;2023-04-16T19:46:57;95099.00;;;7.68;64.04
67545;BME280;54380;47.770;11.150;2023-04-16T19:49:30;95105.41;;;7.73;63.60
67545;BME280;54380;47.770;11.150;2023-04-16T19:52:02;95106.22;;;7.73;63.45
67545;BME280;54380;47.770;11.150;2023-04-16T19:54:29;95101.19;;;7.72;63.47
67545;BME280;54380;47.770;11.150;2023-04-16T19:56:59;95106.66;;;7.70;63.55
67545;BME280;54380;47.770;11.150;2023-04-16T19:59:28;95103.00;;;7.71;63.53
67545;BME280;54380;47.770;11.150;2023-04-16T20:01:58;95108.25;;;7.71;63.70
67545;BME280;54380;47.770;11.150;2023-04-16T20:04:25;95107.00;;;7.74;63.63
67545;BME280;54380;47.770;11.150;2023-04-16T20:06:52;95104.94;;;7.76;63.77
67545;BME280;54380;47.770;11.150;2023-04-16T20:09:20;95113.88;;;7.75;63.13
67545;BME280;54380;47.770;11.150;2023-04-16T20:11:47;95110.66;;;7.73;63.28
67545;BME280;54380;47.770;11.150;2023-04-16T20:14:14;95111.81;;;7.77;63.29
67545;BME280;54380;47.770;11.150;2023-04-16T20:16:41;95112.75;;;7.82;63.42
67545;BME280;54380;47.770;11.150;2023-04-16T20:19:09;95118.13;;;7.87;63.08
67545;BME280;54380;47.770;11.150;2023-04-16T20:21:36;95118.13;;;7.87;63.17
67545;BME280;54380;47.770;11.150;2023-04-16T20:24:03;95113.19;;;7.91;62.78
67545;BME280;54380;47.770;11.150;2023-04-16T20:26:34;95111.69;;;7.95;63.18
67545;BME280;54380;47.770;11.150;2023-04-16T20:29:02;95112.16;;;7.92;63.20
67545;BME280;54380;47.770;11.150;2023-04-16T20:31:29;95111.63;;;7.90;63.09
67545;BME280;54380;47.770;11.150;2023-04-16T20:33:55;95113.41;;;7.89;63.34
67545;BME280;54380;47.770;11.150;2023-04-16T20:36:22;95110.78;;;7.89;63.02
67545;BME280;54380;47.770;11.150;2023-04-16T20:38:49;95110.25;;;7.87;63.12
67545;BME280;54380;47.770;11.150;2023-04-16T20:41:19;95112.50;;;7.84;63.21
67545;BME280;54380;47.770;11.150;2023-04-16T20:43:48;95107.69;;;7.81;63.51
67545;BME280;54380;47.770;11.150;2023-04-16T20:46:15;95111.81;;;7.77;64.11
67545;BME280;54380;47.770;11.150;2023-04-16T20:48:43;95111.00;;;7.76;63.75
67545;BME280;54380;47.770;11.150;2023-04-16T20:51:10;95101.53;;;7.75;63.73
67545;BME280;54380;47.770;11.150;2023-04-16T20:53:38;95098.31;;;7.73;63.85
67545;BME280;54380;47.770;11.150;2023-04-16T20:56:07;95105.41;;;7.73;63.88
67545;BME280;54380;47.770;11.150;2023-04-16T20:58:34;95100.75;;;7.75;64.06
67545;BME280;54380;47.770;11.150;2023-04-16T21:01:03;95097.06;;;7.76;63.79
67545;BME280;54380;47.770;11.150;2023-04-16T21:03:31;95097.66;;;7.78;63.76
67545;BME280;54380;47.770;11.150;2023-04-16T21:05:58;95103.25;;;7.81;63.61
67545;BME280;54380;47.770;11.150;2023-04-16T21:08:27;95098.09;;;7.86;63.79
67545;BME280;54380;47.770;11.150;2023-04-16T21:10:54;95100.06;;;7.91;63.74
67545;BME280;54380;47.770;11.150;2023-04-16T21:13:23;95101.44;;;7.94;63.25
67545;BME280;54380;47.770;11.150;2023-04-16T21:15:50;95096.19;;;7.94;63.54
67545;BME280;54380;47.770;11.150;2023-04-16T21:18:19;95101.44;;;7.94;63.29
67545;BME280;54380;47.770;11.150;2023-04-16T21:20:46;95105.09;;;7.93;63.46
67545;BME280;54380;47.770;11.150;2023-04-16T21:23:13;95095.84;;;7.90;63.52
67545;BME280;54380;47.770;11.150;2023-04-16T21:25:40;95096.19;;;7.94;63.38
67545;BME280;54380;47.770;11.150;2023-04-16T21:28:06;95102.81;;;7.96;63.40
67545;BME280;54380;47.770;11.150;2023-04-16T21:30:33;95096.28;;;7.99;63.42
67545;BME280;54380;47.770;11.150;2023-04-16T21:33:00;95099.84;;;8.04;63.67
67545;BME280;54380;47.770;11.150;2023-04-16T21:35:30;95098.78;;;8.05;63.29
67545;BME280;54380;47.770;11.150;2023-04-16T21:37:56;95100.41;;;8.06;63.42
67545;BME280;54380;47.770;11.150;2023-04-16T21:40:23;95102.00;;;8.07;62.82
67545;BME280;54380;47.770;11.150;2023-04-16T21:42:53;95106.47;;;8.07;63.44
67545;BME280;54380;47.770;11.150;2023-04-16T21:45:20;95100.41;;;8.06;63.21
67545;BME280;54380;47.770;11.150;2023-04-16T21:47:47;95104.88;;;8.06;63.44
67545;BME280;54380;47.770;11.150;2023-04-16T21:50:14;95109.31;;;8.05;63.44
67545;BME280;54380;47.770;11.150;2023-04-16T21:52:44;95102.47;;;8.04;63.57
67545;BME280;54380;47.770;11.150;2023-04-16T21:55:12;95100.28;;;8.01;63.14
67545;BME280;54380;47.770;11.150;2023-04-16T21:57:39;95109.19;;;8.00;63.39
67545;BME280;54380;47.770;11.150;2023-04-16T22:00:07;95103.94;;;8.00;63.67
67545;BME280;54380;47.770;11.150;2023-04-16T22:02:40;95101.09;;;8.02;63.65
67545;BME280;54380;47.770;11.150;2023-04-16T22:05:08;95099.03;;;8.04;63.67
67545;BME280;54380;47.770;11.150;2023-04-16T22:07:36;95106.13;;;8.03;63.22
67545;BME280;54380;47.770;11.150;2023-04-16T22:10:06;95098.47;;;8.02;63.44
67545;BME280;54380;47.770;11.150;2023-04-16T22:12:34;95096.88;;;8.01;63.44
67545;BME280;54380;47.770;11.150;2023-04-16T22:15:06;95100.50;;;8.00;63.94
67545;BME280;54380;47.770;11.150;2023-04-16T22:17:33;95095.25;;;8.00;63.83
67545;BME280;54380;47.770;11.150;2023-04-16T22:20:00;95098.13;;;7.98;63.83
67545;BME280;54380;47.770;11.150;2023-04-16T22:22:30;95091.72;;;7.94;64.14
67545;BME280;54380;47.770;11.150;2023-04-16T22:24:57;95089.56;;;7.91;63.64
67545;BME280;54380;47.770;11.150;2023-04-16T22:27:26;95092.63;;;7.88;64.26
67545;BME280;54380;47.770;11.150;2023-04-16T22:29:52;95091.94;;;7.81;64.93
67545;BME280;54380;47.770;11.150;2023-04-16T22:32:20;95094.69;;;7.74;64.71
67545;BME280;54380;47.770;11.150;2023-04-16T22:34:47;95086.44;;;7.70;64.19
67545;BME280;54380;47.770;11.150;2023-04-16T22:37:14;95092.50;;;7.71;64.64
67545;BME280;54380;47.770;11.150;2023-04-16T22:39:41;95087.59;;;7.75;64.32
67545;BME280;54380;47.770;11.150;2023-04-16T22:42:09;95089.19;;;7.76;64.14
67545;BME280;54380;47.770;11.150;2023-04-16T22:44:39;95091.94;;;7.81;63.83
67545;BME280;54380;47.770;11.150;2023-04-16T22:47:06;95090.91;;;7.82;64.05
67545;BME280;54380;47.770;11.150;2023-04-16T22:49:33;95095.25;;;7.88;63.76
67545;BME280;54380;47.770;11.150;2023-04-16T22:52:00;95097.22;;;7.93;63.85
67545;BME280;54380;47.770;11.150;2023-04-16T22:54:28;95099.03;;;7.92;64.17
67545;BME280;54380;47.770;11.150;2023-04-16T22:56:55;95095.84;;;7.90;63.74
67545;BME280;54380;47.770;11.150;2023-04-16T22:59:22;95100.75;;;7.86;63.97
67545;BME280;54380;47.770;11.150;2023-04-16T23:01:50;95092.72;;;7.81;64.08
67545;BME280;54380;47.770;11.150;2023-04-16T23:04:17;95095.81;;;7.78;64.26
67545;BME280;54380;47.770;11.150;2023-04-16T23:06:44;95094.22;;;7.77;64.41
67545;BME280;54380;47.770;11.150;2023-04-16T23:09:11;95095.03;;;7.78;64.66
67545;BME280;54380;47.770;11.150;2023-04-16T23:11:39;95095.59;;;7.80;64.16
67545;BME280;54380;47.770;11.150;2023-04-16T23:14:07;95093.78;;;7.80;64.22
67545;BME280;54380;47.770;11.150;2023-04-16T23:16:34;95089.31;;;7.81;64.38
67545;BME280;54380;47.770;11.150;2023-04-16T23:19:02;95082.00;;;7.83;64.25
67545;BME280;54380;47.770;11.150;2023-04-16T23:21:29;95086.22;;;7.84;63.54
67545;BME280;54380;47.770;11.150;2023-04-16T23:23:57;95078.34;;;7.84;63.86
67545;BME280;54380;47.770;11.150;2023-04-16T23:26:24;95080.75;;;7.85;64.12
67545;BME280;54380;47.770;11.150;2023-04-16T23:28:51;95070.81;;;7.87;63.45
67545;BME280;54380;47.770;11.150;2023-04-16T23:31:17;95073.78;;;7.91;63.80
67545;BME280;54380;47.770;11.150;2023-04-16T23:33:44;95073.78;;;7.91;63.53
67545;BME280;54380;47.770;11.150;2023-04-16T23:36:13;95074.47;;;7.86;63.50
67545;BME280;54380;47.770;11.150;2023-04-16T23:38:40;95069.66;;;7.83;63.31
67545;BME280;54380;47.770;11.150;2023-04-16T23:41:07;95076.16;;;7.81;63.50
67545;BME280;54380;47.770;11.150;2023-04-16T23:43:36;95078.00;;;7.80;63.67
67545;BME280;54380;47.770;11.150;2023-04-16T23:46:05;95081.56;;;7.74;63.81
67545;BME280;54380;47.770;11.150;2023-04-16T23:48:32;95077.75;;;7.70;63.61
67545;BME280;54380;47.770;11.150;2023-04-16T23:51:00;95076.38;;;7.67;64.26
67545;BME280;54380;47.770;11.150;2023-04-16T23:53:28;95068.72;;;7.66;63.48
67545;BME280;54380;47.770;11.150;2023-04-16T23:55:54;95069.97;;;7.63;63.68
67545;BME280;54380;47.770;11.150;2023-04-16T23:58:21;95064.38;;;7.60;63.95
